sensor_id;sensor_type;location;lat;lon;timestamp;P1;durP1;ratioP1;P2;durP2;ratioP2
61978;SDS011;47938;48.176;16.414;2022-10-31T00:01:19;16.30;;;11.38;;
61978;SDS011;47938;48.176;16.414;2022-10-31T00:03:48;16.27;;;11.23;;
61978;SDS011;47938;48.176;16.414;2022-10-31T00:06:14;17.33;;;11.15;;
61978;SDS011;47938;48.176;16.414;2022-10-31T00:08:40;15.23;;;11.10;;
61978;SDS011;47938;48.176;16.414;2022-10-31T00:11:09;13.73;;;9.45;;
61978;SDS011;47938;48.176;16.414;2022-10-31T00:13:35;13.85;;;10.02;;
61978;SDS011;47938;48.176;16.414;2022-10-31T00:16:01;11.38;;;8.73;;
61978;SDS011;47938;48.176;16.414;2022-10-31T00:18:27;10.32;;;7.97;;
61978;SDS011;47938;48.176;16.414;2022-10-31T00:21:00;10.10;;;7.53;;
61978;SDS011;47938;48.176;16.414;2022-10-31T00:23:26;12.00;;;8.23;;
61978;SDS011;47938;48.176;16.414;2022-10-31T00:25:52;11.10;;;8.52;;
61978;SDS011;47938;48.176;16.414;2022-10-31T00:28:17;12.15;;;8.07;;
61978;SDS011;47938;48.176;16.414;2022-10-31T00:30:43;10.93;;;7.22;;
61978;SDS011;47938;48.176;16.414;2022-10-31T00:33:08;10.65;;;8.20;;
61978;SDS011;47938;48.176;16.414;2022-10-31T00:35:34;16.25;;;10.48;;
61978;SDS011;47938;48.176;16.414;2022-10-31T00:37:59;13.75;;;10.30;;
61978;SDS011;47938;48.176;16.414;2022-10-31T00:40:25;18.33;;;11.68;;
61978;SDS011;47938;48.176;16.414;2022-10-31T00:42:51;16.63;;;11.32;;
61978;SDS011;47938;48.176;16.414;2022-10-31T00:45:16;15.18;;;10.63;;
61978;SDS011;47938;48.176;16.414;2022-10-31T00:47:42;15.75;;;10.98;;
61978;SDS011;47938;48.176;16.414;2022-10-31T00:50:08;16.23;;;10.93;;
61978;SDS011;47938;48.176;16.414;2022-10-31T00:52:34;15.38;;;10.52;;
61978;SDS011;47938;48.176;16.414;2022-10-31T00:54:59;16.00;;;10.82;;
61978;SDS011;47938;48.176;16.414;2022-10-31T00:57:25;17.77;;;11.80;;
61978;SDS011;47938;48.176;16.414;2022-10-31T00:59:51;16.27;;;11.68;;
61978;SDS011;47938;48.176;16.414;2022-10-31T01:02:16;14.68;;;10.48;;
61978;SDS011;47938;48.176;16.414;2022-10-31T01:04:42;14.40;;;9.60;;
61978;SDS011;47938;48.176;16.414;2022-10-31T01:07:07;11.18;;;8.35;;
61978;SDS011;47938;48.176;16.414;2022-10-31T01:09:33;12.93;;;8.82;;
61978;SDS011;47938;48.176;16.414;2022-10-31T01:11:59;11.93;;;8.60;;
61978;SDS011;47938;48.176;16.414;2022-10-31T01:14:24;14.13;;;8.77;;
61978;SDS011;47938;48.176;16.414;2022-10-31T01:16:50;11.55;;;8.15;;
61978;SDS011;47938;48.176;16.414;2022-10-31T01:19:15;10.70;;;7.93;;
61978;SDS011;47938;48.176;16.414;2022-10-31T01:21:41;15.35;;;11.63;;
61978;SDS011;47938;48.176;16.414;2022-10-31T01:24:07;15.30;;;11.43;;
61978;SDS011;47938;48.176;16.414;2022-10-31T01:26:33;15.95;;;11.07;;
61978;SDS011;47938;48.176;16.414;2022-10-31T01:29:00;15.00;;;10.00;;
61978;SDS011;47938;48.176;16.414;2022-10-31T01:31:31;14.17;;;10.73;;
61978;SDS011;47938;48.176;16.414;2022-10-31T01:33:58;14.55;;;9.90;;
61978;SDS011;47938;48.176;16.414;2022-10-31T01:36:26;12.00;;;9.85;;
61978;SDS011;47938;48.176;16.414;2022-10-31T01:38:56;13.63;;;9.48;;
61978;SDS011;47938;48.176;16.414;2022-10-31T01:41:25;11.93;;;8.52;;
61978;SDS011;47938;48.176;16.414;2022-10-31T01:48:48;11.88;;;8.02;;
61978;SDS011;47938;48.176;16.414;2022-10-31T01:51:15;11.40;;;8.43;;
61978;SDS011;47938;48.176;16.414;2022-10-31T01:53:45;11.50;;;8.02;;
61978;SDS011;47938;48.176;16.414;2022-10-31T01:56:12;9.82;;;7.57;;
61978;SDS011;47938;48.176;16.414;2022-10-31T01:58:40;9.40;;;7.43;;
61978;SDS011;47938;48.176;16.414;2022-10-31T02:01:07;8.05;;;6.63;;
61978;SDS011;47938;48.176;16.414;2022-10-31T02:03:32;9.57;;;7.50;;
61978;SDS011;47938;48.176;16.414;2022-10-31T02:05:58;11.02;;;7.57;;
61978;SDS011;47938;48.176;16.414;2022-10-31T02:08:28;9.23;;;7.00;;
61978;SDS011;47938;48.176;16.414;2022-10-31T02:10:58;9.95;;;7.35;;
61978;SDS011;47938;48.176;16.414;2022-10-31T02:13:26;11.60;;;8.20;;
61978;SDS011;47938;48.176;16.414;2022-10-31T02:15:54;11.05;;;8.43;;
61978;SDS011;47938;48.176;16.414;2022-10-31T02:18:22;15.30;;;8.90;;
61978;SDS011;47938;48.176;16.414;2022-10-31T02:23:33;15.05;;;9.50;;
61978;SDS011;47938;48.176;16.414;2022-10-31T02:32:13;10.23;;;7.88;;
61978;SDS011;47938;48.176;16.414;2022-10-31T02:40:47;11.10;;;7.70;;
61978;SDS011;47938;48.176;16.414;2022-10-31T02:43:27;9.10;;;7.28;;
61978;SDS011;47938;48.176;16.414;2022-10-31T02:46:05;9.55;;;7.35;;
61978;SDS011;47938;48.176;16.414;2022-10-31T02:48:39;9.90;;;7.93;;
61978;SDS011;47938;48.176;16.414;2022-10-31T02:51:07;10.38;;;7.60;;
61978;SDS011;47938;48.176;16.414;2022-10-31T02:53:35;11.98;;;8.15;;
61978;SDS011;47938;48.176;16.414;2022-10-31T02:56:04;11.88;;;7.97;;
61978;SDS011;47938;48.176;16.414;2022-10-31T02:58:56;9.80;;;7.35;;
61978;SDS011;47938;48.176;16.414;2022-10-31T03:13:29;9.73;;;7.82;;
61978;SDS011;47938;48.176;16.414;2022-10-31T03:18:53;9.77;;;7.57;;
61978;SDS011;47938;48.176;16.414;2022-10-31T03:21:27;11.25;;;8.40;;
61978;SDS011;47938;48.176;16.414;2022-10-31T03:24:00;9.55;;;7.43;;
61978;SDS011;47938;48.176;16.414;2022-10-31T03:26:27;11.63;;;7.80;;
61978;SDS011;47938;48.176;16.414;2022-10-31T03:28:57;10.60;;;8.07;;
61978;SDS011;47938;48.176;16.414;2022-10-31T03:31:27;11.43;;;7.68;;
61978;SDS011;47938;48.176;16.414;2022-10-31T03:33:58;9.20;;;7.50;;
61978;SDS011;47938;48.176;16.414;2022-10-31T03:36:25;10.43;;;7.57;;
61978;SDS011;47938;48.176;16.414;2022-10-31T03:38:52;11.20;;;7.70;;
61978;SDS011;47938;48.176;16.414;2022-10-31T03:41:21;11.45;;;7.65;;
61978;SDS011;47938;48.176;16.414;2022-10-31T03:43:55;8.55;;;6.90;;
61978;SDS011;47938;48.176;16.414;2022-10-31T03:46:25;12.55;;;7.30;;
61978;SDS011;47938;48.176;16.414;2022-10-31T03:48:52;12.68;;;7.95;;
61978;SDS011;47938;48.176;16.414;2022-10-31T03:53:56;7.85;;;6.75;;
61978;SDS011;47938;48.176;16.414;2022-10-31T03:56:47;10.40;;;6.47;;
61978;SDS011;47938;48.176;16.414;2022-10-31T03:59:20;8.13;;;5.97;;
61978;SDS011;47938;48.176;16.414;2022-10-31T04:02:03;10.82;;;6.20;;
61978;SDS011;47938;48.176;16.414;2022-10-31T04:04:32;10.77;;;4.93;;
61978;SDS011;47938;48.176;16.414;2022-10-31T04:06:59;7.20;;;5.30;;
61978;SDS011;47938;48.176;16.414;2022-10-31T04:09:27;7.05;;;5.40;;
61978;SDS011;47938;48.176;16.414;2022-10-31T04:11:55;6.03;;;4.93;;
61978;SDS011;47938;48.176;16.414;2022-10-31T04:14:23;7.70;;;5.22;;
61978;SDS011;47938;48.176;16.414;2022-10-31T04:16:52;6.55;;;5.05;;
61978;SDS011;47938;48.176;16.414;2022-10-31T04:19:19;8.32;;;5.07;;
61978;SDS011;47938;48.176;16.414;2022-10-31T04:21:44;9.82;;;5.43;;
61978;SDS011;47938;48.176;16.414;2022-10-31T04:24:10;7.43;;;4.93;;
61978;SDS011;47938;48.176;16.414;2022-10-31T04:26:36;8.95;;;5.28;;
61978;SDS011;47938;48.176;16.414;2022-10-31T04:29:02;6.97;;;4.85;;
61978;SDS011;47938;48.176;16.414;2022-10-31T04:31:27;7.50;;;5.07;;
61978;SDS011;47938;48.176;16.414;2022-10-31T04:33:53;6.60;;;4.28;;
61978;SDS011;47938;48.176;16.414;2022-10-31T04:36:19;6.60;;;4.82;;
61978;SDS011;47938;48.176;16.414;2022-10-31T04:38:44;5.53;;;4.60;;
61978;SDS011;47938;48.176;16.414;2022-10-31T04:41:10;7.03;;;4.60;;
61978;SDS011;47938;48.176;16.414;2022-10-31T04:43:36;7.25;;;4.68;;
61978;SDS011;47938;48.176;16.414;2022-10-31T04:46:01;7.53;;;5.18;;
61978;SDS011;47938;48.176;16.414;2022-10-31T04:48:27;5.78;;;4.53;;
61978;SDS011;47938;48.176;16.414;2022-10-31T04:50:57;7.40;;;5.22;;
61978;SDS011;47938;48.176;16.414;2022-10-31T04:53:24;5.35;;;4.40;;
61978;SDS011;47938;48.176;16.414;2022-10-31T04:55:49;5.75;;;4.28;;
61978;SDS011;47938;48.176;16.414;2022-10-31T04:58:15;6.70;;;4.50;;
61978;SDS011;47938;48.176;16.414;2022-10-31T05:00:41;5.90;;;4.40;;
61978;SDS011;47938;48.176;16.414;2022-10-31T05:03:06;5.78;;;4.80;;
61978;SDS011;47938;48.176;16.414;2022-10-31T05:05:32;8.73;;;4.85;;
61978;SDS011;47938;48.176;16.414;2022-10-31T05:07:57;7.15;;;5.00;;
61978;SDS011;47938;48.176;16.414;2022-10-31T05:10:24;7.80;;;4.93;;
61978;SDS011;47938;48.176;16.414;2022-10-31T05:12:55;5.82;;;5.00;;
61978;SDS011;47938;48.176;16.414;2022-10-31T05:15:23;8.23;;;4.53;;
61978;SDS011;47938;48.176;16.414;2022-10-31T05:17:50;5.63;;;4.47;;
61978;SDS011;47938;48.176;16.414;2022-10-31T05:20:17;7.25;;;4.90;;
61978;SDS011;47938;48.176;16.414;2022-10-31T05:22:45;6.47;;;5.00;;
61978;SDS011;47938;48.176;16.414;2022-10-31T05:25:12;5.88;;;4.57;;
61978;SDS011;47938;48.176;16.414;2022-10-31T05:27:39;6.50;;;5.20;;
61978;SDS011;47938;48.176;16.414;2022-10-31T05:30:10;9.33;;;5.30;;
61978;SDS011;47938;48.176;16.414;2022-10-31T05:32:41;9.18;;;4.95;;
61978;SDS011;47938;48.176;16.414;2022-10-31T05:35:09;6.47;;;5.00;;
61978;SDS011;47938;48.176;16.414;2022-10-31T05:37:36;6.97;;;5.18;;
61978;SDS011;47938;48.176;16.414;2022-10-31T05:40:03;6.97;;;5.05;;
61978;SDS011;47938;48.176;16.414;2022-10-31T05:42:30;7.57;;;4.45;;
61978;SDS011;47938;48.176;16.414;2022-10-31T05:44:56;7.22;;;4.82;;
61978;SDS011;47938;48.176;16.414;2022-10-31T05:47:21;11.45;;;5.32;;
61978;SDS011;47938;48.176;16.414;2022-10-31T05:49:47;6.70;;;4.95;;
61978;SDS011;47938;48.176;16.414;2022-10-31T05:52:13;7.80;;;5.50;;
61978;SDS011;47938;48.176;16.414;2022-10-31T05:54:39;7.80;;;5.60;;
61978;SDS011;47938;48.176;16.414;2022-10-31T05:57:04;6.38;;;5.13;;
61978;SDS011;47938;48.176;16.414;2022-10-31T05:59:30;7.30;;;5.68;;
61978;SDS011;47938;48.176;16.414;2022-10-31T06:01:56;9.35;;;5.45;;
61978;SDS011;47938;48.176;16.414;2022-10-31T06:04:21;12.25;;;6.00;;
61978;SDS011;47938;48.176;16.414;2022-10-31T06:06:47;6.72;;;5.15;;
61978;SDS011;47938;48.176;16.414;2022-10-31T06:09:12;7.25;;;5.40;;
61978;SDS011;47938;48.176;16.414;2022-10-31T06:11:38;8.98;;;5.05;;
61978;SDS011;47938;48.176;16.414;2022-10-31T06:14:04;8.40;;;5.50;;
61978;SDS011;47938;48.176;16.414;2022-10-31T06:16:30;11.77;;;5.57;;
61978;SDS011;47938;48.176;16.414;2022-10-31T06:18:55;10.57;;;6.75;;
61978;SDS011;47938;48.176;16.414;2022-10-31T06:21:21;8.68;;;5.97;;
61978;SDS011;47938;48.176;16.414;2022-10-31T06:23:47;11.90;;;6.40;;
61978;SDS011;47938;48.176;16.414;2022-10-31T06:26:13;9.10;;;5.47;;
61978;SDS011;47938;48.176;16.414;2022-10-31T06:28:38;9.30;;;5.93;;
61978;SDS011;47938;48.176;16.414;2022-10-31T06:31:04;7.20;;;5.80;;
61978;SDS011;47938;48.176;16.414;2022-10-31T06:33:30;10.57;;;6.22;;
61978;SDS011;47938;48.176;16.414;2022-10-31T06:35:58;8.98;;;5.88;;
61978;SDS011;47938;48.176;16.414;2022-10-31T06:38:25;8.43;;;5.95;;
61978;SDS011;47938;48.176;16.414;2022-10-31T06:40:51;9.50;;;6.07;;
61978;SDS011;47938;48.176;16.414;2022-10-31T06:43:17;8.63;;;5.35;;
61978;SDS011;47938;48.176;16.414;2022-10-31T06:45:43;11.07;;;5.95;;
61978;SDS011;47938;48.176;16.414;2022-10-31T06:48:09;12.65;;;5.85;;
61978;SDS011;47938;48.176;16.414;2022-10-31T06:50:34;10.48;;;6.32;;
61978;SDS011;47938;48.176;16.414;2022-10-31T06:53:00;10.52;;;6.47;;
61978;SDS011;47938;48.176;16.414;2022-10-31T06:55:26;8.18;;;5.63;;
61978;SDS011;47938;48.176;16.414;2022-10-31T06:57:52;11.93;;;6.43;;
61978;SDS011;47938;48.176;16.414;2022-10-31T07:00:19;13.85;;;6.80;;
61978;SDS011;47938;48.176;16.414;2022-10-31T07:02:58;10.02;;;5.82;;
61978;SDS011;47938;48.176;16.414;2022-10-31T07:05:25;8.52;;;5.95;;
61978;SDS011;47938;48.176;16.414;2022-10-31T07:07:55;10.77;;;6.28;;
61978;SDS011;47938;48.176;16.414;2022-10-31T07:10:22;9.45;;;5.57;;
61978;SDS011;47938;48.176;16.414;2022-10-31T07:12:53;9.10;;;5.88;;
61978;SDS011;47938;48.176;16.414;2022-10-31T07:15:26;8.45;;;6.40;;
61978;SDS011;47938;48.176;16.414;2022-10-31T07:17:53;10.32;;;6.13;;
61978;SDS011;47938;48.176;16.414;2022-10-31T07:20:18;8.65;;;6.00;;
61978;SDS011;47938;48.176;16.414;2022-10-31T07:22:44;13.32;;;6.18;;
61978;SDS011;47938;48.176;16.414;2022-10-31T07:25:10;8.50;;;6.32;;
61978;SDS011;47938;48.176;16.414;2022-10-31T07:27:39;10.90;;;6.53;;
61978;SDS011;47938;48.176;16.414;2022-10-31T07:30:06;9.25;;;6.32;;
61978;SDS011;47938;48.176;16.414;2022-10-31T07:32:37;9.32;;;6.55;;
61978;SDS011;47938;48.176;16.414;2022-10-31T07:35:04;9.57;;;6.50;;
61978;SDS011;47938;48.176;16.414;2022-10-31T07:37:31;11.90;;;6.40;;
61978;SDS011;47938;48.176;16.414;2022-10-31T07:39:57;9.75;;;6.50;;
61978;SDS011;47938;48.176;16.414;2022-10-31T07:42:22;11.52;;;6.82;;
61978;SDS011;47938;48.176;16.414;2022-10-31T07:44:48;13.52;;;6.22;;
61978;SDS011;47938;48.176;16.414;2022-10-31T07:47:13;9.80;;;6.75;;
61978;SDS011;47938;48.176;16.414;2022-10-31T07:49:39;11.73;;;7.38;;
61978;SDS011;47938;48.176;16.414;2022-10-31T07:52:05;12.05;;;7.05;;
61978;SDS011;47938;48.176;16.414;2022-10-31T07:54:30;10.27;;;6.57;;
61978;SDS011;47938;48.176;16.414;2022-10-31T07:56:56;11.57;;;7.40;;
61978;SDS011;47938;48.176;16.414;2022-10-31T07:59:21;8.98;;;6.50;;
61978;SDS011;47938;48.176;16.414;2022-10-31T08:01:47;13.77;;;8.18;;
61978;SDS011;47938;48.176;16.414;2022-10-31T08:04:13;14.15;;;7.45;;
61978;SDS011;47938;48.176;16.414;2022-10-31T08:06:38;12.00;;;6.97;;
61978;SDS011;47938;48.176;16.414;2022-10-31T08:09:04;10.10;;;6.97;;
61978;SDS011;47938;48.176;16.414;2022-10-31T08:11:29;11.63;;;6.97;;
61978;SDS011;47938;48.176;16.414;2022-10-31T08:13:55;10.32;;;6.72;;
61978;SDS011;47938;48.176;16.414;2022-10-31T08:16:20;10.07;;;7.05;;
61978;SDS011;47938;48.176;16.414;2022-10-31T08:18:46;9.80;;;6.60;;
61978;SDS011;47938;48.176;16.414;2022-10-31T08:21:12;13.77;;;7.30;;
61978;SDS011;47938;48.176;16.414;2022-10-31T08:23:37;13.98;;;7.57;;
61978;SDS011;47938;48.176;16.414;2022-10-31T08:26:03;16.25;;;7.28;;
61978;SDS011;47938;48.176;16.414;2022-10-31T08:28:28;16.95;;;7.30;;
61978;SDS011;47938;48.176;16.414;2022-10-31T08:30:54;17.63;;;8.13;;
61978;SDS011;47938;48.176;16.414;2022-10-31T08:33:22;16.40;;;9.00;;
61978;SDS011;47938;48.176;16.414;2022-10-31T08:35:47;15.38;;;7.85;;
61978;SDS011;47938;48.176;16.414;2022-10-31T08:38:13;12.50;;;8.75;;
61978;SDS011;47938;48.176;16.414;2022-10-31T08:40:38;15.05;;;9.13;;
61978;SDS011;47938;48.176;16.414;2022-10-31T08:43:05;18.10;;;9.65;;
61978;SDS011;47938;48.176;16.414;2022-10-31T08:45:41;13.88;;;8.00;;
61978;SDS011;47938;48.176;16.414;2022-10-31T08:48:11;14.20;;;9.15;;
61978;SDS011;47938;48.176;16.414;2022-10-31T08:50:39;20.95;;;9.05;;
61978;SDS011;47938;48.176;16.414;2022-10-31T08:53:06;19.55;;;8.80;;
61978;SDS011;47938;48.176;16.414;2022-10-31T08:55:40;18.23;;;9.13;;
61978;SDS011;47938;48.176;16.414;2022-10-31T08:58:07;13.50;;;8.95;;
61978;SDS011;47938;48.176;16.414;2022-10-31T09:00:35;11.88;;;8.43;;
61978;SDS011;47938;48.176;16.414;2022-10-31T09:03:02;18.85;;;9.40;;
61978;SDS011;47938;48.176;16.414;2022-10-31T09:05:30;20.95;;;10.70;;
61978;SDS011;47938;48.176;16.414;2022-10-31T09:07:58;18.95;;;11.18;;
61978;SDS011;47938;48.176;16.414;2022-10-31T09:10:26;17.42;;;8.63;;
61978;SDS011;47938;48.176;16.414;2022-10-31T09:15:25;12.60;;;8.38;;
61978;SDS011;47938;48.176;16.414;2022-10-31T09:17:52;13.10;;;8.30;;
61978;SDS011;47938;48.176;16.414;2022-10-31T09:20:18;16.42;;;9.13;;
61978;SDS011;47938;48.176;16.414;2022-10-31T09:22:43;14.45;;;8.30;;
61978;SDS011;47938;48.176;16.414;2022-10-31T09:25:09;19.23;;;8.93;;
61978;SDS011;47938;48.176;16.414;2022-10-31T09:27:35;14.38;;;8.88;;
61978;SDS011;47938;48.176;16.414;2022-10-31T09:30:01;13.50;;;8.55;;
61978;SDS011;47938;48.176;16.414;2022-10-31T09:32:27;15.27;;;9.30;;
61978;SDS011;47938;48.176;16.414;2022-10-31T09:34:52;16.85;;;9.73;;
61978;SDS011;47938;48.176;16.414;2022-10-31T09:37:18;26.17;;;11.18;;
61978;SDS011;47938;48.176;16.414;2022-10-31T09:39:44;18.35;;;9.73;;
61978;SDS011;47938;48.176;16.414;2022-10-31T09:45:16;21.37;;;10.97;;
61978;SDS011;47938;48.176;16.414;2022-10-31T09:51:18;22.35;;;12.48;;
61978;SDS011;47938;48.176;16.414;2022-10-31T09:56:24;21.05;;;13.38;;
61978;SDS011;47938;48.176;16.414;2022-10-31T09:58:52;26.27;;;13.60;;
61978;SDS011;47938;48.176;16.414;2022-10-31T10:06:47;30.70;;;13.70;;
61978;SDS011;47938;48.176;16.414;2022-10-31T10:09:24;27.10;;;14.40;;
61978;SDS011;47938;48.176;16.414;2022-10-31T10:14:46;33.13;;;15.20;;
61978;SDS011;47938;48.176;16.414;2022-10-31T10:17:43;33.97;;;17.95;;
61978;SDS011;47938;48.176;16.414;2022-10-31T10:25:40;33.90;;;16.77;;
61978;SDS011;47938;48.176;16.414;2022-10-31T10:28:29;34.90;;;18.05;;
61978;SDS011;47938;48.176;16.414;2022-10-31T10:33:33;41.60;;;21.75;;
61978;SDS011;47938;48.176;16.414;2022-10-31T10:36:05;38.70;;;21.75;;
61978;SDS011;47938;48.176;16.414;2022-10-31T10:38:55;42.15;;;21.67;;
61978;SDS011;47938;48.176;16.414;2022-10-31T10:41:26;44.65;;;22.33;;
61978;SDS011;47938;48.176;16.414;2022-10-31T10:43:55;45.45;;;22.55;;
61978;SDS011;47938;48.176;16.414;2022-10-31T10:46:23;44.75;;;21.50;;
61978;SDS011;47938;48.176;16.414;2022-10-31T10:49:19;40.28;;;20.38;;
61978;SDS011;47938;48.176;16.414;2022-10-31T10:57:19;53.20;;;22.70;;
61978;SDS011;47938;48.176;16.414;2022-10-31T11:00:12;43.50;;;21.25;;
61978;SDS011;47938;48.176;16.414;2022-10-31T11:02:50;43.50;;;20.45;;
61978;SDS011;47938;48.176;16.414;2022-10-31T11:07:57;43.88;;;20.75;;
61978;SDS011;47938;48.176;16.414;2022-10-31T11:10:22;44.42;;;22.92;;
61978;SDS011;47938;48.176;16.414;2022-10-31T11:12:59;43.47;;;22.75;;
61978;SDS011;47938;48.176;16.414;2022-10-31T11:15:28;44.88;;;22.38;;
61978;SDS011;47938;48.176;16.414;2022-10-31T11:17:56;43.03;;;21.92;;
61978;SDS011;47938;48.176;16.414;2022-10-31T11:20:24;50.80;;;24.02;;
61978;SDS011;47938;48.176;16.414;2022-10-31T11:23:03;57.55;;;26.77;;
61978;SDS011;47938;48.176;16.414;2022-10-31T11:25:30;45.88;;;22.80;;
61978;SDS011;47938;48.176;16.414;2022-10-31T11:28:08;46.65;;;25.35;;
61978;SDS011;47938;48.176;16.414;2022-10-31T11:30:45;44.58;;;24.33;;
61978;SDS011;47938;48.176;16.414;2022-10-31T11:33:21;43.53;;;24.23;;
61978;SDS011;47938;48.176;16.414;2022-10-31T11:35:48;46.22;;;24.90;;
61978;SDS011;47938;48.176;16.414;2022-10-31T11:38:18;45.80;;;23.17;;
61978;SDS011;47938;48.176;16.414;2022-10-31T11:40:53;44.40;;;23.92;;
61978;SDS011;47938;48.176;16.414;2022-10-31T11:43:24;49.70;;;24.10;;
61978;SDS011;47938;48.176;16.414;2022-10-31T11:45:50;51.55;;;26.00;;
61978;SDS011;47938;48.176;16.414;2022-10-31T11:48:18;47.90;;;25.92;;
61978;SDS011;47938;48.176;16.414;2022-10-31T11:50:51;45.75;;;25.15;;
61978;SDS011;47938;48.176;16.414;2022-10-31T11:53:22;46.45;;;24.40;;
61978;SDS011;47938;48.176;16.414;2022-10-31T11:56:01;50.22;;;24.63;;
61978;SDS011;47938;48.176;16.414;2022-10-31T11:58:31;54.80;;;24.65;;
61978;SDS011;47938;48.176;16.414;2022-10-31T12:00:57;49.33;;;23.42;;
61978;SDS011;47938;48.176;16.414;2022-10-31T12:05:53;46.83;;;24.73;;
61978;SDS011;47938;48.176;16.414;2022-10-31T12:08:26;58.35;;;26.70;;
61978;SDS011;47938;48.176;16.414;2022-10-31T12:11:02;50.33;;;26.13;;
61978;SDS011;47938;48.176;16.414;2022-10-31T12:19:04;47.00;;;24.17;;
61978;SDS011;47938;48.176;16.414;2022-10-31T12:24:27;48.95;;;24.75;;
61978;SDS011;47938;48.176;16.414;2022-10-31T12:45:59;60.72;;;32.78;;
61978;SDS011;47938;48.176;16.414;2022-10-31T12:59:30;61.58;;;34.45;;
61978;SDS011;47938;48.176;16.414;2022-10-31T13:02:46;64.85;;;34.22;;
61978;SDS011;47938;48.176;16.414;2022-10-31T13:07:24;60.90;;;31.27;;
61978;SDS011;47938;48.176;16.414;2022-10-31T13:10:15;56.90;;;31.58;;
61978;SDS011;47938;48.176;16.414;2022-10-31T13:12:44;55.00;;;30.35;;
61978;SDS011;47938;48.176;16.414;2022-10-31T13:15:17;57.22;;;31.77;;
61978;SDS011;47938;48.176;16.414;2022-10-31T13:17:46;60.67;;;30.98;;
61978;SDS011;47938;48.176;16.414;2022-10-31T13:20:34;62.72;;;32.55;;
61978;SDS011;47938;48.176;16.414;2022-10-31T13:23:16;71.30;;;33.63;;
61978;SDS011;47938;48.176;16.414;2022-10-31T13:26:08;67.25;;;33.00;;
61978;SDS011;47938;48.176;16.414;2022-10-31T13:28:43;60.53;;;32.40;;
61978;SDS011;47938;48.176;16.414;2022-10-31T13:31:12;58.30;;;32.20;;
61978;SDS011;47938;48.176;16.414;2022-10-31T13:39:19;63.95;;;31.30;;
61978;SDS011;47938;48.176;16.414;2022-10-31T13:41:54;73.32;;;33.30;;
61978;SDS011;47938;48.176;16.414;2022-10-31T13:44:29;72.63;;;34.05;;
61978;SDS011;47938;48.176;16.414;2022-10-31T13:46:59;69.93;;;32.05;;
61978;SDS011;47938;48.176;16.414;2022-10-31T13:54:35;68.95;;;33.63;;
61978;SDS011;47938;48.176;16.414;2022-10-31T13:57:06;69.40;;;33.83;;
61978;SDS011;47938;48.176;16.414;2022-10-31T13:59:37;65.57;;;32.38;;
61978;SDS011;47938;48.176;16.414;2022-10-31T14:02:12;67.53;;;33.30;;
61978;SDS011;47938;48.176;16.414;2022-10-31T14:04:48;70.50;;;32.72;;
61978;SDS011;47938;48.176;16.414;2022-10-31T14:07:21;74.25;;;32.55;;
61978;SDS011;47938;48.176;16.414;2022-10-31T14:12:51;72.55;;;34.05;;
61978;SDS011;47938;48.176;16.414;2022-10-31T14:17:52;70.28;;;34.53;;
61978;SDS011;47938;48.176;16.414;2022-10-31T14:26:50;67.43;;;30.23;;
61978;SDS011;47938;48.176;16.414;2022-10-31T14:28:51;63.08;;;32.10;;
61978;SDS011;47938;48.176;16.414;2022-10-31T14:31:29;59.70;;;32.45;;
61978;SDS011;47938;48.176;16.414;2022-10-31T14:34:01;66.55;;;33.40;;
61978;SDS011;47938;48.176;16.414;2022-10-31T14:36:35;66.47;;;32.60;;
61978;SDS011;47938;48.176;16.414;2022-10-31T14:39:18;59.53;;;30.50;;
61978;SDS011;47938;48.176;16.414;2022-10-31T14:41:53;60.15;;;31.77;;
61978;SDS011;47938;48.176;16.414;2022-10-31T14:44:49;57.15;;;30.20;;
61978;SDS011;47938;48.176;16.414;2022-10-31T14:52:49;60.90;;;31.83;;
61978;SDS011;47938;48.176;16.414;2022-10-31T14:55:18;57.42;;;29.98;;
61978;SDS011;47938;48.176;16.414;2022-10-31T14:57:51;53.80;;;30.70;;
61978;SDS011;47938;48.176;16.414;2022-10-31T15:00:21;65.00;;;31.00;;
61978;SDS011;47938;48.176;16.414;2022-10-31T15:02:50;57.67;;;32.08;;
61978;SDS011;47938;48.176;16.414;2022-10-31T15:05:40;53.00;;;30.83;;
61978;SDS011;47938;48.176;16.414;2022-10-31T15:11:09;58.22;;;31.67;;
61978;SDS011;47938;48.176;16.414;2022-10-31T15:16:09;48.85;;;27.52;;
61978;SDS011;47938;48.176;16.414;2022-10-31T15:18:38;54.92;;;28.95;;
61978;SDS011;47938;48.176;16.414;2022-10-31T15:21:15;52.05;;;29.23;;
61978;SDS011;47938;48.176;16.414;2022-10-31T15:23:42;52.42;;;29.48;;
61978;SDS011;47938;48.176;16.414;2022-10-31T15:26:11;49.15;;;26.55;;
61978;SDS011;47938;48.176;16.414;2022-10-31T15:28:42;55.50;;;28.48;;
61978;SDS011;47938;48.176;16.414;2022-10-31T15:31:12;50.55;;;28.02;;
61978;SDS011;47938;48.176;16.414;2022-10-31T15:33:41;54.00;;;28.88;;
61978;SDS011;47938;48.176;16.414;2022-10-31T15:36:17;57.17;;;30.58;;
61978;SDS011;47938;48.176;16.414;2022-10-31T15:38:48;58.37;;;29.20;;
61978;SDS011;47938;48.176;16.414;2022-10-31T15:41:36;54.50;;;29.38;;
61978;SDS011;47938;48.176;16.414;2022-10-31T15:44:14;50.50;;;28.30;;
61978;SDS011;47938;48.176;16.414;2022-10-31T15:46:43;57.80;;;28.40;;
61978;SDS011;47938;48.176;16.414;2022-10-31T15:49:18;55.03;;;28.48;;
61978;SDS011;47938;48.176;16.414;2022-10-31T15:51:52;56.53;;;30.42;;
61978;SDS011;47938;48.176;16.414;2022-10-31T15:54:18;55.67;;;31.30;;
61978;SDS011;47938;48.176;16.414;2022-10-31T15:56:44;50.83;;;28.85;;
61978;SDS011;47938;48.176;16.414;2022-10-31T15:59:20;56.85;;;29.13;;
61978;SDS011;47938;48.176;16.414;2022-10-31T16:02:00;58.30;;;27.88;;
61978;SDS011;47938;48.176;16.414;2022-10-31T16:04:28;50.85;;;26.50;;
61978;SDS011;47938;48.176;16.414;2022-10-31T16:06:58;55.80;;;26.42;;
61978;SDS011;47938;48.176;16.414;2022-10-31T16:11:51;46.80;;;23.30;;
61978;SDS011;47938;48.176;16.414;2022-10-31T16:14:17;48.65;;;24.67;;
61978;SDS011;47938;48.176;16.414;2022-10-31T16:16:51;44.67;;;23.08;;
61978;SDS011;47938;48.176;16.414;2022-10-31T16:19:20;47.90;;;23.75;;
61978;SDS011;47938;48.176;16.414;2022-10-31T16:21:53;41.63;;;22.98;;
61978;SDS011;47938;48.176;16.414;2022-10-31T16:24:29;38.42;;;21.80;;
61978;SDS011;47938;48.176;16.414;2022-10-31T16:27:04;48.78;;;23.25;;
61978;SDS011;47938;48.176;16.414;2022-10-31T16:32:26;46.58;;;24.38;;
61978;SDS011;47938;48.176;16.414;2022-10-31T16:35:01;43.42;;;22.63;;
61978;SDS011;47938;48.176;16.414;2022-10-31T16:37:27;41.92;;;21.90;;
61978;SDS011;47938;48.176;16.414;2022-10-31T16:39:52;38.30;;;21.38;;
61978;SDS011;47938;48.176;16.414;2022-10-31T16:42:18;38.42;;;19.65;;
61978;SDS011;47938;48.176;16.414;2022-10-31T16:44:44;34.90;;;18.63;;
61978;SDS011;47938;48.176;16.414;2022-10-31T16:47:15;35.58;;;20.92;;
61978;SDS011;47938;48.176;16.414;2022-10-31T16:49:42;39.03;;;19.95;;
61978;SDS011;47938;48.176;16.414;2022-10-31T16:52:09;40.42;;;20.63;;
61978;SDS011;47938;48.176;16.414;2022-10-31T16:54:34;36.28;;;20.83;;
61978;SDS011;47938;48.176;16.414;2022-10-31T16:57:00;38.25;;;20.40;;
61978;SDS011;47938;48.176;16.414;2022-10-31T16:59:27;40.67;;;20.60;;
61978;SDS011;47938;48.176;16.414;2022-10-31T17:01:55;40.38;;;21.15;;
61978;SDS011;47938;48.176;16.414;2022-10-31T17:04:21;38.55;;;19.85;;
61978;SDS011;47938;48.176;16.414;2022-10-31T17:06:46;32.60;;;19.05;;